Time;durP1;ratioP1;P1;durP2;ratioP2;P2;SDS_P1;SDS_P2;PMS_P1;PMS_P2;Temp;Humidity;BMP_temperature;BMP_pressure;BME280_temperature;BME280_humidity;BME280_pressure;Samples;Min_cycle;Max_cycle;Signal;HPM_P1;HPM_P2
2022/07/25 00:02:19;;;;;;;1999.90;999.90;;;;;;;14.28;100.00;99962.34;5061365;28;20092;-50
2022/07/25 00:05:05;;;;;;;1999.90;999.90;;;;;;;14.32;100.00;99958.69;5062443;28;20056;-50
2022/07/25 00:07:49;;;;;;;1999.90;999.90;;;;;;;14.23;100.00;99964.28;5064706;28;20074;-49
2022/07/25 00:10:34;;;;;;;1999.90;999.90;;;;;;;14.18;100.00;99959.19;5065950;28;20064;-51
2022/07/25 00:13:18;;;;;;;1999.90;999.90;;;;;;;14.18;100.00;99961.84;5069204;28;20066;-49
2022/07/25 00:16:03;;;;;;;1999.90;999.90;;;;;;;14.19;100.00;99963.53;5059478;28;20302;-50
2022/07/25 00:18:47;;;;;;;1999.90;999.90;;;;;;;14.16;100.00;99958.38;5059400;28;20103;-50
2022/07/25 00:21:32;;;;;;;1999.90;999.90;;;;;;;14.14;100.00;99954.97;5057415;28;20052;-49
2022/07/25 00:24:16;;;;;;;1999.90;999.90;;;;;;;14.23;100.00;99949.38;5062528;28;20063;-51
2022/07/25 00:27:01;;;;;;;1999.90;999.90;;;;;;;14.15;100.00;99953.19;5061580;28;20056;-50
2022/07/25 00:29:46;;;;;;;1999.90;999.90;;;;;;;14.03;100.00;99949.22;5056272;28;20422;-50
2022/07/25 00:32:31;;;;;;;1999.90;999.90;;;;;;;13.98;100.00;99943.28;5060105;28;20051;-50
2022/07/25 00:35:15;;;;;;;1999.90;999.90;;;;;;;13.91;100.00;99939.16;5061296;28;20123;-49
2022/07/25 00:37:59;;;;;;;1999.90;999.90;;;;;;;13.81;100.00;99936.00;5060221;28;20102;-50
2022/07/25 00:40:44;;;;;;;1999.90;999.90;;;;;;;13.90;100.00;99935.66;5058382;28;20040;-50
2022/07/25 00:43:28;;;;;;;1999.90;999.90;;;;;;;13.95;100.00;99938.13;5052161;28;20503;-50
2022/07/25 00:46:14;;;;;;;1999.90;999.90;;;;;;;13.87;100.00;99930.50;5062914;28;20072;-49
2022/07/25 00:48:58;;;;;;;1999.90;999.90;;;;;;;13.95;100.00;99932.88;5055417;28;20047;-50
2022/07/25 00:51:42;;;;;;;1999.90;999.90;;;;;;;13.94;100.00;99936.41;5063977;28;20491;-50
2022/07/25 00:54:27;;;;;;;1999.90;999.90;;;;;;;13.86;100.00;99927.94;5062026;28;20098;-50
2022/07/25 00:57:12;;;;;;;1999.90;999.90;;;;;;;13.89;100.00;99936.59;5062233;28;20057;-49
2022/07/25 00:59:57;;;;;;;1999.90;999.90;;;;;;;13.87;100.00;99940.19;5059241;28;20044;-50
2022/07/25 01:02:42;;;;;;;1999.90;999.90;;;;;;;13.82;100.00;99939.50;5063760;28;20434;-50
2022/07/25 01:05:26;;;;;;;1999.90;999.90;;;;;;;13.87;100.00;99946.28;5059782;28;20083;-50
2022/07/25 01:08:11;;;;;;;1999.90;999.90;;;;;;;13.85;100.00;99937.63;5053924;28;20037;-50
2022/07/25 01:10:55;;;;;;;1999.90;999.90;;;;;;;13.89;100.00;99941.84;5064735;28;20051;-50
2022/07/25 01:13:40;;;;;;;1999.90;999.90;;;;;;;13.89;100.00;99935.72;5067181;28;20048;-51
2022/07/25 01:16:25;;;;;;;1999.90;999.90;;;;;;;13.88;100.00;99934.03;5060300;28;20052;-50
2022/07/25 01:19:09;;;;;;;1999.90;999.90;;;;;;;13.89;100.00;99936.59;5055305;28;20079;-49
2022/07/25 01:21:55;;;;;;;1999.90;999.90;;;;;;;13.83;100.00;99942.06;5060367;28;20481;-50
2022/07/25 01:24:39;;;;;;;1999.90;999.90;;;;;;;13.84;100.00;99940.28;5055903;28;20044;-49
2022/07/25 01:27:24;;;;;;;1999.90;999.90;;;;;;;13.82;100.00;99932.47;5057586;28;20484;-50
2022/07/25 01:30:11;;;;;;;1999.90;999.90;;;;;;;13.81;100.00;99936.00;5057660;28;20097;-51
2022/07/25 01:32:56;;;;;;;1999.90;999.90;;;;;;;13.75;100.00;99937.09;5053380;28;20395;-51
2022/07/25 01:35:40;;;;;;;1999.90;999.90;;;;;;;13.77;100.00;99924.72;5062754;28;20681;-51
2022/07/25 01:38:24;;;;;;;1999.90;999.90;;;;;;;13.70;100.00;99923.22;5054007;28;20056;-50
2022/07/25 01:41:08;;;;;;;1999.90;999.90;;;;;;;13.72;100.00;99916.16;5056578;28;20153;-51
2022/07/25 01:43:53;;;;;;;1999.90;999.90;;;;;;;13.64;100.00;99925.22;5052715;28;20067;-50
2022/07/25 01:46:37;;;;;;;1999.90;999.90;;;;;;;13.56;100.00;99917.59;5054009;28;21520;-50
2022/07/25 01:49:21;;;;;;;1999.90;999.90;;;;;;;13.52;100.00;99916.84;5055293;28;20044;-50
2022/07/25 01:52:06;;;;;;;1999.90;999.90;;;;;;;13.50;100.00;99907.28;5055506;28;20041;-49
2022/07/25 01:54:50;;;;;;;1999.90;999.90;;;;;;;13.55;100.00;99897.44;5065106;28;20055;-50
2022/07/25 01:57:35;;;;;;;1999.90;999.90;;;;;;;13.43;100.00;99892.66;5052742;28;20567;-50
2022/07/25 02:00:20;;;;;;;1999.90;999.90;;;;;;;13.35;100.00;99892.91;5054953;28;20041;-50
2022/07/25 02:06:08;;;;;;;1999.90;999.90;;;;;;;13.36;100.00;99896.38;5058388;28;20059;-50
2022/07/25 02:08:52;;;;;;;1999.90;999.90;;;;;;;13.36;100.00;99899.00;5060089;28;20059;-50
2022/07/25 02:11:37;;;;;;;1999.90;999.90;;;;;;;13.36;100.00;99892.00;5058226;28;20079;-50
2022/07/25 02:14:21;;;;;;;1999.90;999.90;;;;;;;13.24;100.00;99880.13;5056764;28;20091;-51
2022/07/25 02:17:06;;;;;;;1999.90;999.90;;;;;;;13.20;100.00;99883.75;5067038;28;20085;-50
2022/07/25 02:19:50;;;;;;;1999.90;999.90;;;;;;;13.24;100.00;99888.03;5058714;28;20094;-50
2022/07/25 02:22:34;;;;;;;1999.90;999.90;;;;;;;13.27;100.00;99882.66;5060162;28;20080;-50
2022/07/25 02:25:19;;;;;;;1999.90;999.90;;;;;;;13.24;100.00;99897.66;5065094;28;20086;-49
2022/07/25 02:28:04;;;;;;;1999.90;999.90;;;;;;;13.10;100.00;99887.63;5061361;28;20168;-50
2022/07/25 02:30:48;;;;;;;1999.90;999.90;;;;;;;13.06;100.00;99899.13;5065176;28;20052;-50
2022/07/25 02:33:33;;;;;;;1999.90;999.90;;;;;;;13.07;100.00;99901.72;5064276;28;20060;-49
2022/07/25 02:36:17;;;;;;;1999.90;999.90;;;;;;;13.07;100.00;99896.47;5063668;28;20081;-51
2022/07/25 02:39:02;;;;;;;1999.90;999.90;;;;;;;13.07;100.00;99901.72;5068495;28;20391;-50
2022/07/25 02:41:46;;;;;;;1999.90;999.90;;;;;;;12.98;100.00;99902.03;5061814;28;20047;-50
2022/07/25 02:44:31;;;;;;;1999.90;999.90;;;;;;;13.03;100.00;99897.47;5061314;28;20048;-50
2022/07/25 02:47:16;;;;;;;1999.90;999.90;;;;;;;13.05;100.00;99905.31;5057245;28;20120;-50
2022/07/25 02:50:00;;;;;;;1999.90;999.90;;;;;;;12.97;100.00;99904.72;5055365;28;20442;-50
2022/07/25 02:52:44;;;;;;;1999.90;999.90;;;;;;;12.93;100.00;99897.81;5067610;28;20051;-50
2022/07/25 02:55:30;;;;;;;1999.90;999.90;;;;;;;12.97;100.00;99902.09;5056470;28;20056;-51
2022/07/25 02:58:15;;;;;;;1999.90;999.90;;;;;;;12.92;100.00;99901.38;5059290;28;20096;-50
2022/07/25 03:00:59;;;;;;;1999.90;999.90;;;;;;;12.86;100.00;99897.16;5057933;28;20432;-50
2022/07/25 03:03:43;;;;;;;1999.90;999.90;;;;;;;12.88;100.00;99897.97;5063779;28;20051;-50
2022/07/25 03:06:28;;;;;;;1999.90;999.90;;;;;;;12.86;100.00;99898.00;5057016;28;20048;-50
2022/07/25 03:09:13;;;;;;;1999.90;999.90;;;;;;;12.82;100.00;99900.81;5062640;28;20040;-50
2022/07/25 03:11:57;;;;;;;1999.90;999.90;;;;;;;12.84;100.00;99901.63;5055314;28;20494;-50
2022/07/25 03:14:41;;;;;;;1999.90;999.90;;;;;;;12.75;100.00;99907.19;5061083;28;20601;-50
2022/07/25 03:17:27;;;;;;;1999.90;999.90;;;;;;;12.82;100.00;99903.44;5061942;28;20133;-51
2022/07/25 03:20:12;;;;;;;1999.90;999.90;;;;;;;12.80;100.00;99903.50;5055325;28;20063;-50
2022/07/25 03:22:56;;;;;;;1999.90;999.90;;;;;;;12.86;100.00;99910.31;5056378;28;20047;-50
2022/07/25 03:25:41;;;;;;;1999.90;999.90;;;;;;;12.71;100.00;99905.56;5056206;28;20084;-50
2022/07/25 03:28:26;;;;;;;1999.90;999.90;;;;;;;12.71;100.00;99902.94;5054074;28;20087;-49
2022/07/25 03:31:10;;;;;;;1999.90;999.90;;;;;;;12.71;100.00;99898.53;5052447;28;20056;-50
2022/07/25 03:33:55;;;;;;;1999.90;999.90;;;;;;;12.77;100.00;99900.97;5055655;28;20049;-50
2022/07/25 03:36:40;;;;;;;1999.90;999.90;;;;;;;12.78;100.00;99897.44;5054892;28;20135;-50
2022/07/25 03:39:26;;;;;;;1999.90;999.90;;;;;;;12.51;100.00;99895.66;5055508;28;20048;-50
2022/07/25 03:42:11;;;;;;;1999.90;999.90;;;;;;;12.77;100.00;99900.97;5052018;28;20047;-50
2022/07/25 03:44:55;;;;;;;1999.90;999.90;;;;;;;12.75;100.00;99901.94;5057706;28;20399;-50
2022/07/25 03:47:40;;;;;;;1999.90;999.90;;;;;;;12.77;100.00;99889.56;5054816;28;20093;-50
2022/07/25 03:50:24;;;;;;;1999.90;999.90;;;;;;;12.89;100.00;99899.69;5054825;28;20063;-50
2022/07/25 03:53:08;;;;;;;1999.90;999.90;;;;;;;12.89;100.00;99898.84;5053723;28;20506;-50
2022/07/25 03:55:53;;;;;;;1999.90;999.90;;;;;;;12.81;100.00;99897.31;5054452;28;20055;-51
2022/07/25 03:58:37;;;;;;;1999.90;999.90;;;;;;;12.90;100.00;99888.25;5059954;28;20579;-50
2022/07/25 04:01:22;;;;;;;1999.90;999.90;;;;;;;13.04;100.00;99883.41;5060080;28;20383;-50
2022/07/25 04:04:06;;;;;;;1999.90;999.90;;;;;;;13.01;100.00;99880.88;5053595;28;20095;-52
2022/07/25 04:06:51;;;;;;;1999.90;999.90;;;;;;;13.04;100.00;99886.03;5056156;28;20067;-49
2022/07/25 04:09:35;;;;;;;1999.90;999.90;;;;;;;13.21;100.00;99880.19;5062120;28;20047;-50
2022/07/25 04:12:19;;;;;;;1999.90;999.90;;;;;;;13.39;100.00;99888.38;5052800;28;20082;-50
2022/07/25 04:15:04;;;;;;;1999.90;999.90;;;;;;;13.52;100.00;99877.38;5058949;28;20060;-50
2022/07/25 04:17:49;;;;;;;1999.90;999.90;;;;;;;13.74;100.00;99879.22;5058569;28;20407;-50
2022/07/25 04:20:36;;;;;;;1999.90;999.90;;;;;;;14.12;100.00;99882.19;5068557;28;20098;-51
2022/07/25 04:23:20;;;;;;;1999.90;999.90;;;;;;;14.75;100.00;99872.66;5064182;28;20049;-50
2022/07/25 04:26:05;;;;;;;1999.90;999.90;;;;;;;15.12;100.00;99861.44;5062968;28;20383;-51
2022/07/25 04:28:49;;;;;;;1999.90;999.90;;;;;;;14.76;100.00;99858.59;5063364;28;20431;-50
2022/07/25 04:31:34;;;;;;;1999.90;999.90;;;;;;;15.46;100.00;99848.56;5058742;28;20054;-50
2022/07/25 04:34:19;;;;;;;1999.90;999.90;;;;;;;15.86;100.00;99851.16;5061047;28;20793;-50
2022/07/25 04:37:03;;;;;;;1999.90;999.90;;;;;;;16.60;100.00;99856.41;5058313;28;20079;-50
2022/07/25 04:39:47;;;;;;;1999.90;999.90;;;;;;;17.32;100.00;99846.66;5059442;28;20101;-50
2022/07/25 04:42:32;;;;;;;1999.90;999.90;;;;;;;17.73;100.00;99856.84;5057193;28;20044;-51
2022/07/25 04:45:17;;;;;;;1999.90;999.90;;;;;;;17.74;100.00;99856.78;5061094;28;20131;-50
2022/07/25 04:48:01;;;;;;;1999.90;999.90;;;;;;;17.42;100.00;99845.25;5056001;28;20097;-50
2022/07/25 04:50:46;;;;;;;1999.90;999.90;;;;;;;17.36;100.00;99845.56;5056251;28;20083;-50
2022/07/25 04:53:30;;;;;;;1999.90;999.90;;;;;;;17.75;100.00;99850.53;5057357;28;20099;-52
2022/07/25 04:56:15;;;;;;;1999.90;999.90;;;;;;;17.69;100.00;99850.88;5062659;28;20060;-51
2022/07/25 04:58:59;;;;;;;1999.90;999.90;;;;;;;18.42;100.00;99845.13;5059246;28;20351;-51
2022/07/25 05:01:44;;;;;;;1999.90;999.90;;;;;;;18.01;100.00;99843.00;5059966;28;20122;-51
2022/07/25 05:04:28;;;;;;;1999.90;999.90;;;;;;;18.55;100.00;99838.16;5056355;28;20060;-51
2022/07/25 05:07:13;;;;;;;1999.90;999.90;;;;;;;18.75;100.00;99834.41;5049856;28;20044;-51
2022/07/25 05:09:57;;;;;;;1999.90;999.90;;;;;;;18.92;100.00;99836.94;5050591;28;20093;-51
2022/07/25 05:12:42;;;;;;;1999.90;999.90;;;;;;;19.18;100.00;99831.88;5050689;28;20491;-52
2022/07/25 05:15:26;;;;;;;1999.90;999.90;;;;;;;19.66;100.00;99823.66;5059364;28;20160;-52
2022/07/25 05:18:11;;;;;;;1999.90;999.90;;;;;;;19.93;100.00;99821.94;5049626;28;20122;-51
2022/07/25 05:20:55;;;;;;;1999.90;999.90;;;;;;;19.99;100.00;99818.91;5057173;28;20123;-52
2022/07/25 05:23:40;;;;;;;1999.90;999.90;;;;;;;20.10;100.00;99817.34;5057685;28;20766;-52
2022/07/25 05:26:24;;;;;;;1999.90;999.90;;;;;;;20.77;100.00;99810.28;5057645;28;21210;-52
2022/07/25 05:29:09;;;;;;;1999.90;999.90;;;;;;;20.71;100.00;99805.38;5058650;28;20149;-54
2022/07/25 05:31:53;;;;;;;1999.90;999.90;;;;;;;21.10;100.00;99808.97;5057562;28;20139;-51
2022/07/25 05:34:38;;;;;;;1999.90;999.90;;;;;;;21.23;100.00;99805.34;5049485;28;20645;-52
2022/07/25 05:37:23;;;;;;;1999.90;999.90;;;;;;;21.28;100.00;99812.16;5063677;28;20068;-51
2022/07/25 05:40:08;;;;;;;1999.90;999.90;;;;;;;21.40;100.00;99804.19;5048493;28;20053;-52
2022/07/25 05:42:52;;;;;;;1999.90;999.90;;;;;;;21.87;100.00;99799.97;5050810;28;20045;-51
2022/07/25 05:45:37;;;;;;;1999.90;999.90;;;;;;;21.55;100.00;99801.44;5049976;28;20040;-51
2022/07/25 05:48:21;;;;;;;1999.90;999.90;;;;;;;22.09;100.00;99799.25;5049763;28;20043;-52
2022/07/25 05:51:06;;;;;;;1999.90;999.90;;;;;;;22.42;100.00;99799.59;5050271;28;20095;-52
2022/07/25 05:53:51;;;;;;;1999.90;999.90;;;;;;;22.48;100.00;99802.66;5058978;28;20122;-53
2022/07/25 05:56:35;;;;;;;1999.90;999.90;;;;;;;22.19;100.00;99799.47;5061288;28;20372;-53
2022/07/25 05:59:19;;;;;;;1999.90;999.90;;;;;;;22.56;100.00;99794.09;5053838;28;20826;-53
2022/07/25 06:02:04;;;;;;;1999.90;999.90;;;;;;;22.76;100.00;99795.25;5063175;28;20041;-52
2022/07/25 06:04:48;;;;;;;1999.90;999.90;;;;;;;22.85;100.00;99794.56;5051481;28;20051;-52
2022/07/25 06:07:33;;;;;;;1999.90;999.90;;;;;;;23.42;100.00;99787.50;5052292;28;20387;-52
2022/07/25 06:10:17;;;;;;;1999.90;999.90;;;;;;;23.11;100.00;99781.91;5054553;28;20132;-52
2022/07/25 06:13:01;;;;;;;1999.90;999.90;;;;;;;23.12;100.00;99791.59;5052238;28;20052;-52
2022/07/25 06:15:45;;;;;;;1999.90;999.90;;;;;;;22.61;100.00;99792.75;5048489;28;20059;-52
2022/07/25 06:18:30;;;;;;;1999.90;999.90;;;;;;;23.21;100.00;99782.88;5049308;28;20106;-52
2022/07/25 06:21:14;;;;;;;1999.90;999.90;;;;;;;22.85;100.00;99783.88;5057082;28;20093;-52
2022/07/25 06:23:59;;;;;;;1999.90;999.90;;;;;;;22.63;100.00;99779.31;5058198;28;20063;-53
2022/07/25 06:26:43;;;;;;;1999.90;999.90;;;;;;;23.09;100.00;99783.81;5054415;28;20048;-53
2022/07/25 06:29:28;;;;;;;1999.90;999.90;;;;;;;23.53;100.00;99779.50;5058535;28;20052;-52
2022/07/25 06:32:12;;;;;;;1999.90;999.90;;;;;;;23.86;100.00;99784.00;5060084;28;20454;-53
2022/07/25 06:34:58;;;;;;;1999.90;999.90;;;;;;;23.63;100.00;99775.13;5052223;28;20126;-53
2022/07/25 06:37:42;;;;;;;1999.90;999.90;;;;;;;24.13;98.07;99775.53;5055444;28;20149;-53
2022/07/25 06:40:27;;;;;;;1999.90;999.90;;;;;;;24.42;99.38;99775.84;5051780;28;20677;-53
2022/07/25 06:43:11;;;;;;;1999.90;999.90;;;;;;;24.87;96.93;99767.59;5053327;28;20435;-53
2022/07/25 06:45:56;;;;;;;1999.90;999.90;;;;;;;24.86;95.00;99767.72;5052750;28;20052;-52
2022/07/25 06:48:40;;;;;;;1999.90;999.90;;;;;;;24.99;92.66;99765.69;5052949;28;20067;-53
2022/07/25 06:51:25;;;;;;;1999.90;999.90;;;;;;;24.85;91.52;99769.56;5054135;28;20415;-53
2022/07/25 06:54:09;;;;;;;1999.90;999.90;;;;;;;24.74;86.87;99772.31;5050651;28;20059;-56
2022/07/25 06:56:54;;;;;;;1999.90;999.90;;;;;;;25.81;89.11;99772.91;5046502;28;20136;-54
2022/07/25 06:59:38;;;;;;;1999.90;999.90;;;;;;;26.09;92.22;99769.44;5054293;28;20055;-54
2022/07/25 07:02:23;;;;;;;1999.90;999.90;;;;;;;25.25;86.16;99759.94;5053134;28;20119;-53
2022/07/25 07:05:07;;;;;;;1999.90;999.90;;;;;;;25.00;87.44;99761.22;5058450;28;20072;-53
2022/07/25 07:07:52;;;;;;;1999.90;999.90;;;;;;;25.98;86.43;99756.16;5058712;28;20049;-53
2022/07/25 07:10:38;;;;;;;1999.90;999.90;;;;;;;26.08;85.76;99750.81;5057773;28;20123;-53
2022/07/25 07:13:24;;;;;;;1999.90;999.90;;;;;;;26.70;85.01;99741.50;5057240;28;20051;-53
2022/07/25 07:16:08;;;;;;;1999.90;999.90;;;;;;;26.54;81.18;99741.25;5055210;28;20051;-54
2022/07/25 07:18:53;;;;;;;1999.90;999.90;;;;;;;26.54;78.53;99735.88;5054866;28;20056;-54
2022/07/25 07:21:38;;;;;;;1999.90;999.90;;;;;;;27.13;74.13;99731.22;5055839;28;20163;-54
2022/07/25 07:24:22;;;;;;;1999.90;999.90;;;;;;;26.91;72.17;99730.59;5060297;28;20041;-54
2022/07/25 07:27:07;;;;;;;1999.90;999.90;;;;;;;27.03;73.47;99729.41;5059674;28;20103;-53
2022/07/25 07:29:51;;;;;;;1999.90;999.90;;;;;;;28.00;74.23;99728.16;5056967;28;20041;-54
2022/07/25 07:32:35;;;;;;;1999.90;999.90;;;;;;;28.00;72.59;99732.72;5056122;28;20161;-54
2022/07/25 07:35:20;;;;;;;1999.90;999.90;;;;;;;27.66;68.33;99736.84;5062470;28;20098;-53
2022/07/25 07:38:05;;;;;;;1999.90;999.90;;;;;;;27.06;66.01;99722.91;5064946;28;20102;-55
2022/07/25 07:40:49;;;;;;;1999.90;999.90;;;;;;;28.32;66.86;99730.34;5066230;28;20044;-55
2022/07/25 07:43:34;;;;;;;1999.90;999.90;;;;;;;27.86;63.92;99737.63;5061876;28;20158;-54
2022/07/25 07:46:19;;;;;;;1999.90;999.90;;;;;;;26.57;66.89;99731.06;5064997;28;20471;-54
2022/07/25 07:49:03;;;;;;;1999.90;999.90;;;;;;;27.67;68.43;99725.09;5059331;28;20079;-53
2022/07/25 07:51:47;;;;;;;1999.90;999.90;;;;;;;26.84;64.43;99721.41;5070119;28;20049;-54
2022/07/25 07:57:35;;;;;;;1999.90;999.90;;;;;;;27.26;61.87;99716.50;5061936;28;20549;-54
2022/07/25 08:00:20;;;;;;;1999.90;999.90;;;;;;;27.76;59.29;99715.28;5063146;28;21354;-54
2022/07/25 08:03:07;;;;;;;1999.90;999.90;;;;;;;28.39;60.42;99709.91;5060620;28;20099;-54
2022/07/25 08:05:51;;;;;;;1999.90;999.90;;;;;;;28.33;55.61;99707.78;5056850;28;20407;-54
2022/07/25 08:08:36;;;;;;;1999.90;999.90;;;;;;;28.37;56.71;99700.25;5054243;28;20075;-55
2022/07/25 08:11:20;;;;;;;1999.90;999.90;;;;;;;28.96;62.32;99693.31;5055482;28;20121;-57
2022/07/25 08:14:05;;;;;;;1999.90;999.90;;;;;;;28.59;56.38;99693.56;5061536;28;20111;-55
2022/07/25 08:16:51;;;;;;;1999.90;999.90;;;;;;;28.75;55.55;99696.38;5052981;28;20112;-54
2022/07/25 08:19:36;;;;;;;1999.90;999.90;;;;;;;28.38;54.14;99696.56;5056428;28;20044;-56
2022/07/25 08:22:20;;;;;;;1999.90;999.90;;;;;;;28.59;51.33;99693.56;5058263;28;20037;-54
2022/07/25 08:25:07;;;;;;;1999.90;999.90;;;;;;;29.11;50.12;99689.03;5056480;28;20059;-56
2022/07/25 08:27:52;;;;;;;1999.90;999.90;;;;;;;29.48;50.79;99690.56;5061022;28;20101;-55
2022/07/25 08:30:38;;;;;;;1999.90;999.90;;;;;;;29.24;51.28;99688.59;5064299;28;20040;-54
2022/07/25 08:33:23;;;;;;;1999.90;999.90;;;;;;;29.55;49.54;99693.47;5060309;28;20048;-55
2022/07/25 08:36:09;;;;;;;1999.90;999.90;;;;;;;29.61;53.45;99686.56;5058154;28;20075;-54
2022/07/25 08:38:54;;;;;;;1999.90;999.90;;;;;;;29.16;50.42;99688.56;5057951;28;20540;-55
2022/07/25 08:41:40;;;;;;;1999.90;999.90;;;;;;;28.88;52.31;99688.69;5058619;28;20068;-56
2022/07/25 08:44:30;;;;;;;1999.90;999.90;;;;;;;30.41;52.36;99681.50;5056955;28;20049;-55
2022/07/25 08:47:15;;;;;;;1999.90;999.90;;;;;;;29.77;50.57;99675.84;5059670;28;20827;-56
2022/07/25 08:50:04;;;;;;;1999.90;999.90;;;;;;;29.43;49.99;99674.00;5061022;28;20106;-56
2022/07/25 08:52:50;;;;;;;1999.90;999.90;;;;;;;30.00;48.35;99679.59;5065244;28;20051;-53
2022/07/25 08:55:34;;;;;;;1999.90;999.90;;;;;;;30.66;49.16;99672.38;5069163;28;20041;-53
2022/07/25 08:58:19;;;;;;;1999.90;999.90;;;;;;;30.18;52.97;99667.78;5069788;28;20121;-54
2022/07/25 09:01:04;;;;;;;1999.90;999.90;;;;;;;29.95;48.80;99667.59;5063941;28;20036;-55
2022/07/25 09:03:48;;;;;;;1999.90;999.90;;;;;;;30.74;48.70;99666.09;5067041;28;20087;-51
2022/07/25 09:06:33;;;;;;;1999.90;999.90;;;;;;;28.82;51.20;99661.53;5061224;28;20055;-54
2022/07/25 09:09:18;;;;;;;1999.90;999.90;;;;;;;30.89;49.59;99660.88;5065345;28;20514;-54
2022/07/25 09:12:05;;;;;;;1999.90;999.90;;;;;;;30.03;49.82;99657.66;5061506;28;20496;-54
2022/07/25 09:14:49;;;;;;;1999.90;999.90;;;;;;;30.27;49.06;99650.63;5066755;28;20510;-53
2022/07/25 09:17:37;;;;;;;1999.90;999.90;;;;;;;30.49;48.08;99639.13;5068410;28;20471;-55
2022/07/25 09:20:24;;;;;;;1999.90;999.90;;;;;;;30.63;42.03;99642.97;5059760;28;20056;-54
2022/07/25 09:23:29;;;;;;;1999.90;999.90;;;;;;;30.33;44.83;99649.09;5055647;28;20391;-56
2022/07/25 09:26:14;;;;;;;1999.90;999.90;;;;;;;30.70;42.73;99648.53;5055027;28;20044;-54
2022/07/25 09:28:59;;;;;;;1999.90;999.90;;;;;;;30.98;42.16;99646.31;5055418;28;20052;-54
2022/07/25 09:31:44;;;;;;;1999.90;999.90;;;;;;;31.05;43.16;99649.16;5055801;28;20056;-55
2022/07/25 09:34:30;;;;;;;1999.90;999.90;;;;;;;31.36;42.47;99646.50;5050020;28;20447;-54
2022/07/25 09:37:17;;;;;;;1999.90;999.90;;;;;;;30.72;41.48;99638.41;5056020;28;20049;-55
2022/07/25 09:40:13;;;;;;;1999.90;999.90;;;;;;;30.98;40.51;99638.19;5051133;28;20059;-55
2022/07/25 09:42:57;;;;;;;1999.90;999.90;;;;;;;30.79;40.67;99642.13;5054402;28;20924;-56
2022/07/25 09:45:48;;;;;;;1999.90;999.90;;;;;;;30.83;40.66;99626.41;5055535;28;20045;-55
2022/07/25 09:48:34;;;;;;;1999.90;999.90;;;;;;;31.52;42.08;99634.78;5054783;28;20054;-56
2022/07/25 09:51:19;;;;;;;1999.90;999.90;;;;;;;31.11;42.35;99633.09;5053547;28;20079;-56
2022/07/25 09:54:04;;;;;;;1999.90;999.90;;;;;;;31.83;38.37;99622.06;5054260;28;20442;-57
2022/07/25 09:56:48;;;;;;;1999.90;999.90;;;;;;;31.86;40.81;99623.56;5055995;28;20422;-56
2022/07/25 09:59:34;;;;;;;1999.90;999.90;;;;;;;31.96;41.00;99617.94;5057292;28;20037;-56
2022/07/25 10:02:40;;;;;;;1999.90;999.90;;;;;;;31.25;39.38;99617.13;5056940;28;21568;-55
2022/07/25 10:05:47;;;;;;;1999.90;999.90;;;;;;;31.64;39.87;99615.25;5055131;28;20099;-55
2022/07/25 10:08:36;;;;;;;1999.90;999.90;;;;;;;32.39;40.08;99610.94;5056560;28;20060;-56
2022/07/25 10:11:24;;;;;;;1999.90;999.90;;;;;;;31.80;40.10;99611.59;5054053;28;20498;-55
2022/07/25 10:14:12;;;;;;;1999.90;999.90;;;;;;;31.07;42.55;99598.44;5056210;28;20051;-55
2022/07/25 10:16:56;;;;;;;1999.90;999.90;;;;;;;32.03;40.77;99598.06;5054352;28;20049;-52
2022/07/25 10:19:43;;;;;;;1999.90;999.90;;;;;;;31.55;39.64;99601.94;5057617;28;20432;-54
2022/07/25 10:22:45;;;;;;;1999.90;999.90;;;;;;;32.22;40.01;99569.63;5058345;28;20264;-56
2022/07/25 10:25:29;;;;;;;1999.90;999.90;;;;;;;31.48;40.92;99588.28;5056182;28;20446;-57
2022/07/25 10:28:19;;;;;;;1999.90;999.90;;;;;;;31.65;41.12;99586.31;5054911;28;20048;-58
2022/07/25 10:31:14;;;;;;;1999.90;999.90;;;;;;;31.47;40.53;99588.47;5054559;28;20055;-57
2022/07/25 10:34:02;;;;;;;1999.90;999.90;;;;;;;31.79;40.94;99582.84;5054958;28;20048;-54
2022/07/25 10:36:50;;;;;;;1999.90;999.90;;;;;;;33.50;38.00;99582.91;5049393;28;20059;-58
2022/07/25 10:39:43;;;;;;;1999.90;999.90;;;;;;;33.76;38.63;99576.06;5051617;28;20098;-55
2022/07/25 10:42:31;;;;;;;1999.90;999.90;;;;;;;33.49;40.33;99574.97;5056210;28;20117;-57
2022/07/25 10:45:16;;;;;;;1999.90;999.90;;;;;;;32.23;38.60;99565.06;5070010;28;20391;-56
2022/07/25 10:48:06;;;;;;;1999.90;999.90;;;;;;;32.29;39.25;99569.75;5065367;28;20629;-56
2022/07/25 10:51:06;;;;;;;1999.90;999.90;;;;;;;32.11;39.98;99567.38;5065740;28;20105;-54
2022/07/25 10:53:51;;;;;;;1999.90;999.90;;;;;;;32.60;40.29;99569.63;5056674;28;20041;-54
2022/07/25 10:56:36;;;;;;;1999.90;999.90;;;;;;;32.75;41.21;99566.91;5058027;28;20055;-56
2022/07/25 10:59:37;;;;;;;1999.90;999.90;;;;;;;32.90;37.20;99556.91;5057646;28;20055;-56
2022/07/25 11:02:23;;;;;;;1999.90;999.90;;;;;;;31.60;37.97;99542.72;5061414;28;20068;-56
2022/07/25 11:05:07;;;;;;;1999.90;999.90;;;;;;;32.65;39.42;99544.66;5060071;28;20140;-55
2022/07/25 11:07:53;;;;;;;1999.90;999.90;;;;;;;32.22;37.25;99520.88;5060198;28;20067;-55
2022/07/25 11:10:38;;;;;;;1999.90;999.90;;;;;;;32.58;36.44;99539.16;5062776;28;20071;-54
2022/07/25 11:13:22;;;;;;;1999.90;999.90;;;;;;;32.36;39.50;99525.47;5059947;28;20045;-56
2022/07/25 11:16:08;;;;;;;1999.90;999.90;;;;;;;32.22;36.26;99534.44;5059417;28;20166;-55
2022/07/25 11:18:55;;;;;;;1999.90;999.90;;;;;;;33.21;36.00;99529.53;5059245;28;20049;-55
2022/07/25 11:21:44;;;;;;;1999.90;999.90;;;;;;;33.39;35.17;99514.72;5066694;28;20066;-55
2022/07/25 11:24:44;;;;;;;1999.90;999.90;;;;;;;32.81;34.80;99512.75;5064446;28;20088;-57
2022/07/25 11:27:32;;;;;;;1999.90;999.90;;;;;;;33.20;35.80;99513.47;5069365;28;20127;-56
2022/07/25 11:30:18;;;;;;;1999.90;999.90;;;;;;;33.72;34.74;99505.03;5068836;28;20079;-54
2022/07/25 11:33:03;;;;;;;1999.90;999.90;;;;;;;32.74;35.01;99513.72;5062376;28;20063;-56
2022/07/25 11:35:47;;;;;;;1999.90;999.90;;;;;;;32.26;35.27;99505.94;5060802;28;20091;-57
2022/07/25 11:38:33;;;;;;;1999.90;999.90;;;;;;;32.94;38.15;99492.28;5058515;28;20613;-57
2022/07/25 11:41:27;;;;;;;1999.90;999.90;;;;;;;33.09;34.98;99490.41;5062674;28;20083;-57
2022/07/25 11:44:11;;;;;;;1999.90;999.90;;;;;;;32.94;34.03;99484.97;5056907;28;20079;-55
2022/07/25 11:46:56;;;;;;;1999.90;999.90;;;;;;;33.47;37.75;99479.28;5064537;28;20056;-57
2022/07/25 11:49:45;;;;;;;1999.90;999.90;;;;;;;32.48;37.11;99484.41;5056695;28;20079;-56
2022/07/25 11:52:35;;;;;;;1999.90;999.90;;;;;;;32.82;37.17;99470.22;5058098;28;20044;-58
2022/07/25 11:55:28;;;;;;;1999.90;999.90;;;;;;;32.61;34.87;99476.44;5057240;28;20044;-56
2022/07/25 11:58:13;;;;;;;1999.90;999.90;;;;;;;32.35;34.25;99468.75;5062880;28;20055;-55
2022/07/25 12:00:57;;;;;;;1999.90;999.90;;;;;;;32.91;33.19;99457.41;5062923;28;20066;-56
2022/07/25 12:03:42;;;;;;;1999.90;999.90;;;;;;;32.81;35.31;99457.72;5057044;28;20655;-57
2022/07/25 12:06:28;;;;;;;1999.90;999.90;;;;;;;32.27;36.90;99449.88;5069126;28;20078;-55
2022/07/25 12:09:22;;;;;;;1999.90;999.90;;;;;;;32.20;37.37;99438.13;5064495;28;20044;-55
2022/07/25 12:12:06;;;;;;;1999.90;999.90;;;;;;;32.65;35.82;99438.97;5058676;28;20049;-56
2022/07/25 12:14:51;;;;;;;1999.90;999.90;;;;;;;32.11;34.42;99438.22;5060527;28;20075;-57
2022/07/25 12:17:36;;;;;;;1999.90;999.90;;;;;;;32.57;35.02;99431.78;5064265;28;20051;-56